sensor_id;sensor_type;location;lat;lon;timestamp;temperature;humidity
25280;DHT22;13225;47.804;12.116;2022-12-07T00:01:20;3.40;99.90
25280;DHT22;13225;47.804;12.116;2022-12-07T00:03:48;3.40;99.90
25280;DHT22;13225;47.804;12.116;2022-12-07T00:06:16;3.40;99.90
25280;DHT22;13225;47.804;12.116;2022-12-07T00:08:42;3.40;99.90
25280;DHT22;13225;47.804;12.116;2022-12-07T00:11:26;3.40;99.90
25280;DHT22;13225;47.804;12.116;2022-12-07T00:13:56;3.40;99.90
25280;DHT22;13225;47.804;12.116;2022-12-07T00:16:24;3.30;99.90
25280;DHT22;13225;47.804;12.116;2022-12-07T00:18:50;3.30;99.90
25280;DHT22;13225;47.804;12.116;2022-12-07T00:21:22;3.20;99.90
25280;DHT22;13225;47.804;12.116;2022-12-07T00:23:48;3.20;99.90
25280;DHT22;13225;47.804;12.116;2022-12-07T00:26:22;3.20;99.90
25280;DHT22;13225;47.804;12.116;2022-12-07T00:28:50;3.20;99.90
25280;DHT22;13225;47.804;12.116;2022-12-07T00:31:18;3.20;99.90
25280;DHT22;13225;47.804;12.116;2022-12-07T00:33:44;3.20;99.90
25280;DHT22;13225;47.804;12.116;2022-12-07T00:36:13;3.20;99.90
25280;DHT22;13225;47.804;12.116;2022-12-07T00:38:39;3.20;99.90
25280;DHT22;13225;47.804;12.116;2022-12-07T00:41:11;3.20;99.90
25280;DHT22;13225;47.804;12.116;2022-12-07T00:43:37;3.20;99.90
25280;DHT22;13225;47.804;12.116;2022-12-07T00:46:03;3.20;99.90
25280;DHT22;13225;47.804;12.116;2022-12-07T00:48:29;3.20;99.90
25280;DHT22;13225;47.804;12.116;2022-12-07T00:50:55;3.10;99.90
25280;DHT22;13225;47.804;12.116;2022-12-07T00:53:20;3.10;99.90
25280;DHT22;13225;47.804;12.116;2022-12-07T00:55:46;3.20;99.90
25280;DHT22;13225;47.804;12.116;2022-12-07T00:58:12;3.10;99.90
25280;DHT22;13225;47.804;12.116;2022-12-07T01:00:39;3.10;99.90
25280;DHT22;13225;47.804;12.116;2022-12-07T01:03:06;3.10;99.90
25280;DHT22;13225;47.804;12.116;2022-12-07T01:05:32;3.20;99.90
25280;DHT22;13225;47.804;12.116;2022-12-07T01:07:58;3.20;99.90
25280;DHT22;13225;47.804;12.116;2022-12-07T01:10:24;3.20;99.90
25280;DHT22;13225;47.804;12.116;2022-12-07T01:12:49;3.20;99.90
25280;DHT22;13225;47.804;12.116;2022-12-07T01:15:15;3.20;99.90
25280;DHT22;13225;47.804;12.116;2022-12-07T01:17:41;3.30;99.90
25280;DHT22;13225;47.804;12.116;2022-12-07T01:20:07;3.20;99.90
25280;DHT22;13225;47.804;12.116;2022-12-07T01:22:37;3.20;99.90
25280;DHT22;13225;47.804;12.116;2022-12-07T01:25:04;3.20;99.90
25280;DHT22;13225;47.804;12.116;2022-12-07T01:27:30;3.20;99.90
25280;DHT22;13225;47.804;12.116;2022-12-07T01:29:55;3.20;99.90
25280;DHT22;13225;47.804;12.116;2022-12-07T01:32:21;3.30;99.90
25280;DHT22;13225;47.804;12.116;2022-12-07T01:34:48;3.40;99.90
25280;DHT22;13225;47.804;12.116;2022-12-07T01:37:13;3.40;99.90
25280;DHT22;13225;47.804;12.116;2022-12-07T01:39:39;3.40;99.90
25280;DHT22;13225;47.804;12.116;2022-12-07T01:42:04;3.30;99.90
25280;DHT22;13225;47.804;12.116;2022-12-07T01:44:31;3.30;99.90
25280;DHT22;13225;47.804;12.116;2022-12-07T01:47:00;3.30;99.90
25280;DHT22;13225;47.804;12.116;2022-12-07T01:49:43;3.30;99.90
25280;DHT22;13225;47.804;12.116;2022-12-07T01:52:28;3.30;99.90
25280;DHT22;13225;47.804;12.116;2022-12-07T01:55:00;3.30;99.90
25280;DHT22;13225;47.804;12.116;2022-12-07T01:57:27;3.30;99.90
25280;DHT22;13225;47.804;12.116;2022-12-07T01:59:53;3.30;99.90
25280;DHT22;13225;47.804;12.116;2022-12-07T02:02:31;3.20;99.90
25280;DHT22;13225;47.804;12.116;2022-12-07T02:04:59;3.20;99.90
25280;DHT22;13225;47.804;12.116;2022-12-07T02:07:26;3.30;99.90
25280;DHT22;13225;47.804;12.116;2022-12-07T02:09:53;3.30;99.90
25280;DHT22;13225;47.804;12.116;2022-12-07T02:12:19;3.30;99.90
25280;DHT22;13225;47.804;12.116;2022-12-07T02:14:46;3.30;99.90
25280;DHT22;13225;47.804;12.116;2022-12-07T02:18:07;3.30;99.90
25280;DHT22;13225;47.804;12.116;2022-12-07T02:29:13;3.30;99.90
25280;DHT22;13225;47.804;12.116;2022-12-07T02:31:50;3.30;99.90
25280;DHT22;13225;47.804;12.116;2022-12-07T02:34:48;3.30;99.90
25280;DHT22;13225;47.804;12.116;2022-12-07T02:37:37;3.30;99.90
25280;DHT22;13225;47.804;12.116;2022-12-07T02:41:04;3.30;99.90
25280;DHT22;13225;47.804;12.116;2022-12-07T02:43:14;3.30;99.90
25280;DHT22;13225;47.804;12.116;2022-12-07T02:45:42;3.30;99.90
25280;DHT22;13225;47.804;12.116;2022-12-07T02:48:11;3.30;99.90
25280;DHT22;13225;47.804;12.116;2022-12-07T02:50:37;3.30;99.90
25280;DHT22;13225;47.804;12.116;2022-12-07T02:53:03;3.30;99.90
25280;DHT22;13225;47.804;12.116;2022-12-07T02:55:33;3.30;99.90
25280;DHT22;13225;47.804;12.116;2022-12-07T02:58:50;3.30;99.90
25280;DHT22;13225;47.804;12.116;2022-12-07T03:01:19;3.30;99.90
25280;DHT22;13225;47.804;12.116;2022-12-07T03:03:51;3.30;99.90
25280;DHT22;13225;47.804;12.116;2022-12-07T03:06:28;3.30;99.90
25280;DHT22;13225;47.804;12.116;2022-12-07T03:09:20;3.30;99.90
25280;DHT22;13225;47.804;12.116;2022-12-07T03:11:56;3.30;99.90
25280;DHT22;13225;47.804;12.116;2022-12-07T03:14:34;3.30;99.90
25280;DHT22;13225;47.804;12.116;2022-12-07T03:17:15;3.30;99.90
25280;DHT22;13225;47.804;12.116;2022-12-07T03:19:43;3.20;99.90
25280;DHT22;13225;47.804;12.116;2022-12-07T03:22:11;3.20;99.90
25280;DHT22;13225;47.804;12.116;2022-12-07T03:27:13;3.30;99.90
25280;DHT22;13225;47.804;12.116;2022-12-07T03:30:02;3.40;99.90
25280;DHT22;13225;47.804;12.116;2022-12-07T03:32:33;3.40;99.90
25280;DHT22;13225;47.804;12.116;2022-12-07T03:37:46;3.40;99.90
25280;DHT22;13225;47.804;12.116;2022-12-07T03:40:34;3.40;99.90
25280;DHT22;13225;47.804;12.116;2022-12-07T03:43:01;3.40;99.90
25280;DHT22;13225;47.804;12.116;2022-12-07T03:45:43;3.40;99.90
25280;DHT22;13225;47.804;12.116;2022-12-07T03:48:25;3.40;99.90
25280;DHT22;13225;47.804;12.116;2022-12-07T03:51:04;3.40;99.90
25280;DHT22;13225;47.804;12.116;2022-12-07T03:54:18;3.40;99.90
25280;DHT22;13225;47.804;12.116;2022-12-07T03:56:46;3.40;99.90
25280;DHT22;13225;47.804;12.116;2022-12-07T03:59:14;3.40;99.90
25280;DHT22;13225;47.804;12.116;2022-12-07T04:01:44;3.40;99.90
25280;DHT22;13225;47.804;12.116;2022-12-07T04:04:16;3.40;99.90
25280;DHT22;13225;47.804;12.116;2022-12-07T04:06:42;3.40;99.90
25280;DHT22;13225;47.804;12.116;2022-12-07T04:09:08;3.40;99.90
25280;DHT22;13225;47.804;12.116;2022-12-07T04:11:33;3.40;99.90
25280;DHT22;13225;47.804;12.116;2022-12-07T04:13:59;3.40;99.90
25280;DHT22;13225;47.804;12.116;2022-12-07T04:16:43;3.40;99.90
25280;DHT22;13225;47.804;12.116;2022-12-07T04:19:09;3.40;99.90
25280;DHT22;13225;47.804;12.116;2022-12-07T04:21:35;3.40;99.90
25280;DHT22;13225;47.804;12.116;2022-12-07T04:24:00;3.40;99.90
25280;DHT22;13225;47.804;12.116;2022-12-07T04:26:26;3.40;99.90
25280;DHT22;13225;47.804;12.116;2022-12-07T04:28:51;3.30;99.90
25280;DHT22;13225;47.804;12.116;2022-12-07T04:31:17;3.30;99.90
25280;DHT22;13225;47.804;12.116;2022-12-07T04:33:43;3.30;99.90
25280;DHT22;13225;47.804;12.116;2022-12-07T04:36:08;3.30;99.90
25280;DHT22;13225;47.804;12.116;2022-12-07T04:38:34;3.30;99.90
25280;DHT22;13225;47.804;12.116;2022-12-07T04:41:05;3.30;99.90
25280;DHT22;13225;47.804;12.116;2022-12-07T04:43:31;3.30;99.90
25280;DHT22;13225;47.804;12.116;2022-12-07T04:45:56;3.30;99.90
25280;DHT22;13225;47.804;12.116;2022-12-07T04:48:22;3.30;99.90
25280;DHT22;13225;47.804;12.116;2022-12-07T04:50:48;3.30;99.90
25280;DHT22;13225;47.804;12.116;2022-12-07T04:53:17;3.40;99.90
25280;DHT22;13225;47.804;12.116;2022-12-07T04:55:44;3.30;99.90
25280;DHT22;13225;47.804;12.116;2022-12-07T04:58:10;3.30;99.90
25280;DHT22;13225;47.804;12.116;2022-12-07T05:00:36;3.30;99.90
25280;DHT22;13225;47.804;12.116;2022-12-07T05:03:02;3.40;99.90
25280;DHT22;13225;47.804;12.116;2022-12-07T05:05:27;3.40;99.90
25280;DHT22;13225;47.804;12.116;2022-12-07T05:07:53;3.30;99.90
25280;DHT22;13225;47.804;12.116;2022-12-07T05:10:19;3.30;99.90
25280;DHT22;13225;47.804;12.116;2022-12-07T05:12:45;3.20;99.90
25280;DHT22;13225;47.804;12.116;2022-12-07T05:15:11;3.20;99.90
25280;DHT22;13225;47.804;12.116;2022-12-07T05:17:37;3.20;99.90
25280;DHT22;13225;47.804;12.116;2022-12-07T05:20:03;3.20;99.90
25280;DHT22;13225;47.804;12.116;2022-12-07T05:22:29;3.20;99.90
25280;DHT22;13225;47.804;12.116;2022-12-07T05:24:56;3.20;99.90
25280;DHT22;13225;47.804;12.116;2022-12-07T05:27:22;3.10;99.90
25280;DHT22;13225;47.804;12.116;2022-12-07T05:29:49;3.10;99.90
25280;DHT22;13225;47.804;12.116;2022-12-07T05:32:15;3.10;99.90
25280;DHT22;13225;47.804;12.116;2022-12-07T05:34:41;3.00;99.90
25280;DHT22;13225;47.804;12.116;2022-12-07T05:37:06;3.00;99.90
25280;DHT22;13225;47.804;12.116;2022-12-07T05:39:32;3.00;99.90
25280;DHT22;13225;47.804;12.116;2022-12-07T05:41:57;3.00;99.90
25280;DHT22;13225;47.804;12.116;2022-12-07T05:44:42;3.00;99.90
25280;DHT22;13225;47.804;12.116;2022-12-07T05:47:09;3.10;99.90
25280;DHT22;13225;47.804;12.116;2022-12-07T05:49:35;3.00;99.90
25280;DHT22;13225;47.804;12.116;2022-12-07T05:52:01;3.00;99.90
25280;DHT22;13225;47.804;12.116;2022-12-07T05:54:27;3.00;99.90
25280;DHT22;13225;47.804;12.116;2022-12-07T05:56:52;3.00;99.90
25280;DHT22;13225;47.804;12.116;2022-12-07T05:59:18;3.00;99.90
25280;DHT22;13225;47.804;12.116;2022-12-07T06:01:58;3.00;99.90
25280;DHT22;13225;47.804;12.116;2022-12-07T06:04:26;3.00;99.90
25280;DHT22;13225;47.804;12.116;2022-12-07T06:06:53;3.00;99.90
25280;DHT22;13225;47.804;12.116;2022-12-07T06:09:22;2.90;99.90
25280;DHT22;13225;47.804;12.116;2022-12-07T06:11:48;2.90;99.90
25280;DHT22;13225;47.804;12.116;2022-12-07T06:14:32;3.00;99.90
25280;DHT22;13225;47.804;12.116;2022-12-07T06:16:58;2.90;99.90
25280;DHT22;13225;47.804;12.116;2022-12-07T06:19:23;2.90;99.90
25280;DHT22;13225;47.804;12.116;2022-12-07T06:21:49;2.90;99.90
25280;DHT22;13225;47.804;12.116;2022-12-07T06:24:16;2.90;99.90
25280;DHT22;13225;47.804;12.116;2022-12-07T06:26:42;2.90;99.90
25280;DHT22;13225;47.804;12.116;2022-12-07T06:29:08;2.90;99.90
25280;DHT22;13225;47.804;12.116;2022-12-07T06:31:35;2.90;99.90
25280;DHT22;13225;47.804;12.116;2022-12-07T06:34:03;2.90;99.90
25280;DHT22;13225;47.804;12.116;2022-12-07T06:36:29;3.00;99.90
25280;DHT22;13225;47.804;12.116;2022-12-07T06:38:55;2.90;99.90
25280;DHT22;13225;47.804;12.116;2022-12-07T06:41:21;2.90;99.90
25280;DHT22;13225;47.804;12.116;2022-12-07T06:43:47;2.90;99.90
25280;DHT22;13225;47.804;12.116;2022-12-07T06:46:14;2.90;99.90
25280;DHT22;13225;47.804;12.116;2022-12-07T06:48:40;2.90;99.90
25280;DHT22;13225;47.804;12.116;2022-12-07T06:51:06;3.00;99.90
25280;DHT22;13225;47.804;12.116;2022-12-07T06:53:32;3.00;99.90
25280;DHT22;13225;47.804;12.116;2022-12-07T06:55:57;3.00;99.90
25280;DHT22;13225;47.804;12.116;2022-12-07T06:58:23;3.00;99.90
25280;DHT22;13225;47.804;12.116;2022-12-07T07:00:49;3.10;99.90
25280;DHT22;13225;47.804;12.116;2022-12-07T07:03:18;3.00;99.90
25280;DHT22;13225;47.804;12.116;2022-12-07T07:05:44;3.00;99.90
25280;DHT22;13225;47.804;12.116;2022-12-07T07:08:11;3.00;99.90
25280;DHT22;13225;47.804;12.116;2022-12-07T07:10:36;2.90;99.90
25280;DHT22;13225;47.804;12.116;2022-12-07T07:13:02;2.90;99.90
25280;DHT22;13225;47.804;12.116;2022-12-07T07:15:29;3.00;99.90
25280;DHT22;13225;47.804;12.116;2022-12-07T07:17:54;3.00;99.90
25280;DHT22;13225;47.804;12.116;2022-12-07T07:20:20;2.70;99.90
25280;DHT22;13225;47.804;12.116;2022-12-07T07:22:46;2.50;99.90
25280;DHT22;13225;47.804;12.116;2022-12-07T07:25:11;2.10;99.90
25280;DHT22;13225;47.804;12.116;2022-12-07T07:27:37;1.90;99.90
25280;DHT22;13225;47.804;12.116;2022-12-07T07:30:04;1.70;99.90
25280;DHT22;13225;47.804;12.116;2022-12-07T07:32:30;1.50;99.90
25280;DHT22;13225;47.804;12.116;2022-12-07T07:34:56;1.40;99.90
25280;DHT22;13225;47.804;12.116;2022-12-07T07:37:21;1.50;99.90
25280;DHT22;13225;47.804;12.116;2022-12-07T07:39:47;1.50;99.90
25280;DHT22;13225;47.804;12.116;2022-12-07T07:42:13;1.60;99.90
25280;DHT22;13225;47.804;12.116;2022-12-07T07:44:38;1.60;99.90
25280;DHT22;13225;47.804;12.116;2022-12-07T07:47:04;1.60;99.90
25280;DHT22;13225;47.804;12.116;2022-12-07T07:49:30;1.70;99.90
25280;DHT22;13225;47.804;12.116;2022-12-07T07:51:55;1.70;99.90
25280;DHT22;13225;47.804;12.116;2022-12-07T07:54:21;1.70;99.90
25280;DHT22;13225;47.804;12.116;2022-12-07T07:56:46;1.70;99.90
25280;DHT22;13225;47.804;12.116;2022-12-07T07:59:12;1.70;99.90
25280;DHT22;13225;47.804;12.116;2022-12-07T08:01:38;1.80;99.90
25280;DHT22;13225;47.804;12.116;2022-12-07T08:04:03;1.80;99.90
25280;DHT22;13225;47.804;12.116;2022-12-07T08:06:29;1.80;99.90
25280;DHT22;13225;47.804;12.116;2022-12-07T08:08:55;1.90;99.90
25280;DHT22;13225;47.804;12.116;2022-12-07T08:11:20;1.90;99.90
25280;DHT22;13225;47.804;12.116;2022-12-07T08:13:46;1.90;99.90
25280;DHT22;13225;47.804;12.116;2022-12-07T08:16:12;2.00;99.90
25280;DHT22;13225;47.804;12.116;2022-12-07T08:18:41;2.00;99.90
25280;DHT22;13225;47.804;12.116;2022-12-07T08:21:09;2.00;99.90
25280;DHT22;13225;47.804;12.116;2022-12-07T08:23:35;2.10;99.90
25280;DHT22;13225;47.804;12.116;2022-12-07T08:26:04;2.10;99.90
25280;DHT22;13225;47.804;12.116;2022-12-07T08:28:30;2.10;99.90
25280;DHT22;13225;47.804;12.116;2022-12-07T08:31:11;2.20;99.90
25280;DHT22;13225;47.804;12.116;2022-12-07T08:33:38;2.20;99.90
25280;DHT22;13225;47.804;12.116;2022-12-07T08:36:06;2.10;99.90
25280;DHT22;13225;47.804;12.116;2022-12-07T08:38:34;2.20;99.90
25280;DHT22;13225;47.804;12.116;2022-12-07T08:41:00;2.30;99.90
25280;DHT22;13225;47.804;12.116;2022-12-07T08:43:26;2.40;99.90
25280;DHT22;13225;47.804;12.116;2022-12-07T08:46:16;2.40;99.90
25280;DHT22;13225;47.804;12.116;2022-12-07T08:48:49;2.50;99.90
25280;DHT22;13225;47.804;12.116;2022-12-07T08:51:15;2.50;99.90
25280;DHT22;13225;47.804;12.116;2022-12-07T08:53:41;2.50;99.90
25280;DHT22;13225;47.804;12.116;2022-12-07T08:56:08;2.50;99.90
25280;DHT22;13225;47.804;12.116;2022-12-07T08:58:36;2.50;99.90
25280;DHT22;13225;47.804;12.116;2022-12-07T09:01:03;2.60;99.90
25280;DHT22;13225;47.804;12.116;2022-12-07T09:03:32;2.60;99.90
25280;DHT22;13225;47.804;12.116;2022-12-07T09:05:59;2.60;99.90
25280;DHT22;13225;47.804;12.116;2022-12-07T09:08:29;2.70;99.90
25280;DHT22;13225;47.804;12.116;2022-12-07T09:10:56;2.70;99.90
25280;DHT22;13225;47.804;12.116;2022-12-07T09:13:25;2.70;99.90
25280;DHT22;13225;47.804;12.116;2022-12-07T09:15:51;2.70;99.90
25280;DHT22;13225;47.804;12.116;2022-12-07T09:18:17;2.70;99.90
25280;DHT22;13225;47.804;12.116;2022-12-07T09:20:43;2.70;99.90
25280;DHT22;13225;47.804;12.116;2022-12-07T09:23:08;2.70;99.90
25280;DHT22;13225;47.804;12.116;2022-12-07T09:25:35;2.80;99.90
25280;DHT22;13225;47.804;12.116;2022-12-07T09:28:01;2.70;99.90
25280;DHT22;13225;47.804;12.116;2022-12-07T09:30:27;2.70;99.90
25280;DHT22;13225;47.804;12.116;2022-12-07T09:32:56;2.80;99.90
25280;DHT22;13225;47.804;12.116;2022-12-07T09:35:23;2.80;99.90
25280;DHT22;13225;47.804;12.116;2022-12-07T09:37:49;2.90;99.90
25280;DHT22;13225;47.804;12.116;2022-12-07T09:40:18;2.90;99.90
25280;DHT22;13225;47.804;12.116;2022-12-07T09:42:48;3.00;99.90
25280;DHT22;13225;47.804;12.116;2022-12-07T09:45:23;3.00;99.90
25280;DHT22;13225;47.804;12.116;2022-12-07T09:47:52;3.00;99.90
25280;DHT22;13225;47.804;12.116;2022-12-07T09:50:44;3.00;99.90
25280;DHT22;13225;47.804;12.116;2022-12-07T09:53:20;3.10;99.90
25280;DHT22;13225;47.804;12.116;2022-12-07T09:55:51;3.10;99.90
25280;DHT22;13225;47.804;12.116;2022-12-07T09:58:28;3.10;99.90
25280;DHT22;13225;47.804;12.116;2022-12-07T10:01:01;3.10;99.90
25280;DHT22;13225;47.804;12.116;2022-12-07T10:03:30;3.10;99.90
25280;DHT22;13225;47.804;12.116;2022-12-07T10:05:56;3.10;99.90
25280;DHT22;13225;47.804;12.116;2022-12-07T10:08:24;3.00;99.90
25280;DHT22;13225;47.804;12.116;2022-12-07T10:10:55;3.10;99.90
25280;DHT22;13225;47.804;12.116;2022-12-07T10:13:45;3.10;99.90
25280;DHT22;13225;47.804;12.116;2022-12-07T10:16:39;3.10;99.90
25280;DHT22;13225;47.804;12.116;2022-12-07T10:19:28;3.20;99.90
25280;DHT22;13225;47.804;12.116;2022-12-07T10:22:13;3.10;99.90
25280;DHT22;13225;47.804;12.116;2022-12-07T10:24:40;3.20;99.90
25280;DHT22;13225;47.804;12.116;2022-12-07T10:27:22;3.20;99.90
25280;DHT22;13225;47.804;12.116;2022-12-07T10:29:52;3.30;99.90
25280;DHT22;13225;47.804;12.116;2022-12-07T10:34:44;3.30;99.90
25280;DHT22;13225;47.804;12.116;2022-12-07T10:42:19;3.40;99.90
25280;DHT22;13225;47.804;12.116;2022-12-07T10:44:49;3.40;99.90
25280;DHT22;13225;47.804;12.116;2022-12-07T10:47:38;3.40;99.90
25280;DHT22;13225;47.804;12.116;2022-12-07T10:53:05;3.60;99.90
25280;DHT22;13225;47.804;12.116;2022-12-07T11:06:55;3.80;99.90
25280;DHT22;13225;47.804;12.116;2022-12-07T11:12:11;3.70;99.90
25280;DHT22;13225;47.804;12.116;2022-12-07T11:15:02;3.80;99.90
25280;DHT22;13225;47.804;12.116;2022-12-07T11:17:35;3.80;99.90
25280;DHT22;13225;47.804;12.116;2022-12-07T11:35:17;3.90;99.90
25280;DHT22;13225;47.804;12.116;2022-12-07T11:37:47;3.90;99.90
25280;DHT22;13225;47.804;12.116;2022-12-07T11:40:22;3.90;99.90
25280;DHT22;13225;47.804;12.116;2022-12-07T11:42:58;4.00;99.90
25280;DHT22;13225;47.804;12.116;2022-12-07T11:45:31;4.00;99.90
25280;DHT22;13225;47.804;12.116;2022-12-07T11:47:59;4.10;99.90
25280;DHT22;13225;47.804;12.116;2022-12-07T11:53:23;4.00;99.90
25280;DHT22;13225;47.804;12.116;2022-12-07T11:55:55;4.10;99.90
25280;DHT22;13225;47.804;12.116;2022-12-07T12:06:38;4.20;99.90
25280;DHT22;13225;47.804;12.116;2022-12-07T12:09:11;4.30;99.90
25280;DHT22;13225;47.804;12.116;2022-12-07T12:22:36;4.40;99.90
25280;DHT22;13225;47.804;12.116;2022-12-07T12:25:11;4.30;99.90
25280;DHT22;13225;47.804;12.116;2022-12-07T12:27:39;4.30;99.90
25280;DHT22;13225;47.804;12.116;2022-12-07T12:30:07;4.30;99.90
25280;DHT22;13225;47.804;12.116;2022-12-07T12:32:49;4.30;99.90
25280;DHT22;13225;47.804;12.116;2022-12-07T12:35:33;4.30;99.90
25280;DHT22;13225;47.804;12.116;2022-12-07T12:38:29;4.40;99.90
25280;DHT22;13225;47.804;12.116;2022-12-07T12:40:56;4.40;99.90
25280;DHT22;13225;47.804;12.116;2022-12-07T12:43:47;4.40;99.90
25280;DHT22;13225;47.804;12.116;2022-12-07T12:51:50;4.50;99.90
25280;DHT22;13225;47.804;12.116;2022-12-07T13:02:29;4.50;99.90
25280;DHT22;13225;47.804;12.116;2022-12-07T13:18:04;4.30;99.90
25280;DHT22;13225;47.804;12.116;2022-12-07T13:20:46;4.30;99.90
25280;DHT22;13225;47.804;12.116;2022-12-07T13:23:14;4.40;99.90
25280;DHT22;13225;47.804;12.116;2022-12-07T13:25:54;4.30;99.90
25280;DHT22;13225;47.804;12.116;2022-12-07T13:28:22;4.40;99.90
25280;DHT22;13225;47.804;12.116;2022-12-07T13:33:19;4.40;99.90
25280;DHT22;13225;47.804;12.116;2022-12-07T13:35:45;4.30;99.90
25280;DHT22;13225;47.804;12.116;2022-12-07T13:38:47;4.30;99.90
25280;DHT22;13225;47.804;12.116;2022-12-07T13:41:16;4.30;99.90
25280;DHT22;13225;47.804;12.116;2022-12-07T13:44:03;4.30;99.90
25280;DHT22;13225;47.804;12.116;2022-12-07T13:49:30;4.30;99.90
25280;DHT22;13225;47.804;12.116;2022-12-07T13:54:49;4.20;99.90
25280;DHT22;13225;47.804;12.116;2022-12-07T13:57:21;4.10;99.90
25280;DHT22;13225;47.804;12.116;2022-12-07T13:59:49;4.00;99.90
25280;DHT22;13225;47.804;12.116;2022-12-07T14:02:30;4.10;99.90
25280;DHT22;13225;47.804;12.116;2022-12-07T14:05:23;4.20;99.90
25280;DHT22;13225;47.804;12.116;2022-12-07T14:10:53;4.20;99.90
25280;DHT22;13225;47.804;12.116;2022-12-07T14:15:54;4.10;99.90
25280;DHT22;13225;47.804;12.116;2022-12-07T14:18:40;4.20;99.90
25280;DHT22;13225;47.804;12.116;2022-12-07T14:21:19;4.20;99.90
25280;DHT22;13225;47.804;12.116;2022-12-07T14:23:45;4.20;99.90
25280;DHT22;13225;47.804;12.116;2022-12-07T14:26:27;4.10;99.90
25280;DHT22;13225;47.804;12.116;2022-12-07T14:28:52;4.10;99.90
25280;DHT22;13225;47.804;12.116;2022-12-07T14:31:22;4.00;99.90
25280;DHT22;13225;47.804;12.116;2022-12-07T14:33:49;4.00;99.90
25280;DHT22;13225;47.804;12.116;2022-12-07T14:36:15;4.00;99.90
25280;DHT22;13225;47.804;12.116;2022-12-07T14:38:41;4.00;99.90
25280;DHT22;13225;47.804;12.116;2022-12-07T14:41:14;4.00;99.90
25280;DHT22;13225;47.804;12.116;2022-12-07T14:43:58;3.90;99.90
25280;DHT22;13225;47.804;12.116;2022-12-07T14:46:24;3.90;99.90
25280;DHT22;13225;47.804;12.116;2022-12-07T14:48:50;3.90;99.90
25280;DHT22;13225;47.804;12.116;2022-12-07T14:51:16;3.90;99.90
25280;DHT22;13225;47.804;12.116;2022-12-07T14:53:44;3.80;99.90
25280;DHT22;13225;47.804;12.116;2022-12-07T14:56:11;3.80;99.90
25280;DHT22;13225;47.804;12.116;2022-12-07T14:58:36;3.80;99.90
25280;DHT22;13225;47.804;12.116;2022-12-07T15:01:02;3.80;99.90
25280;DHT22;13225;47.804;12.116;2022-12-07T15:03:28;3.70;99.90
25280;DHT22;13225;47.804;12.116;2022-12-07T15:05:54;3.70;99.90
25280;DHT22;13225;47.804;12.116;2022-12-07T15:08:19;3.70;99.90
25280;DHT22;13225;47.804;12.116;2022-12-07T15:10:45;3.70;99.90
25280;DHT22;13225;47.804;12.116;2022-12-07T15:13:11;3.70;99.90
25280;DHT22;13225;47.804;12.116;2022-12-07T15:15:55;3.70;99.90
25280;DHT22;13225;47.804;12.116;2022-12-07T15:18:22;3.60;99.90
25280;DHT22;13225;47.804;12.116;2022-12-07T15:20:48;3.50;99.90
25280;DHT22;13225;47.804;12.116;2022-12-07T15:23:14;3.50;99.90
25280;DHT22;13225;47.804;12.116;2022-12-07T15:25:47;3.50;99.90
25280;DHT22;13225;47.804;12.116;2022-12-07T15:28:14;3.50;99.90
25280;DHT22;13225;47.804;12.116;2022-12-07T15:30:41;3.50;99.90
25280;DHT22;13225;47.804;12.116;2022-12-07T15:33:08;3.40;99.90
25280;DHT22;13225;47.804;12.116;2022-12-07T15:35:33;3.40;99.90
25280;DHT22;13225;47.804;12.116;2022-12-07T15:38:03;3.50;99.90
25280;DHT22;13225;47.804;12.116;2022-12-07T15:40:31;3.40;99.90
25280;DHT22;13225;47.804;12.116;2022-12-07T15:42:57;3.40;99.90
25280;DHT22;13225;47.804;12.116;2022-12-07T15:45:22;3.40;99.90
25280;DHT22;13225;47.804;12.116;2022-12-07T15:47:48;3.40;99.90
25280;DHT22;13225;47.804;12.116;2022-12-07T15:50:15;3.40;99.90
25280;DHT22;13225;47.804;12.116;2022-12-07T15:52:41;3.50;99.90
25280;DHT22;13225;47.804;12.116;2022-12-07T15:55:07;3.40;99.90
25280;DHT22;13225;47.804;12.116;2022-12-07T15:57:35;3.40;99.90
25280;DHT22;13225;47.804;12.116;2022-12-07T16:00:03;3.40;99.90
25280;DHT22;13225;47.804;12.116;2022-12-07T16:02:30;3.30;99.90
25280;DHT22;13225;47.804;12.116;2022-12-07T16:04:55;3.30;99.90
25280;DHT22;13225;47.804;12.116;2022-12-07T16:07:22;3.30;99.90
25280;DHT22;13225;47.804;12.116;2022-12-07T16:09:48;3.30;99.90
25280;DHT22;13225;47.804;12.116;2022-12-07T16:12:15;3.30;99.90
25280;DHT22;13225;47.804;12.116;2022-12-07T16:14:44;3.20;99.90
25280;DHT22;13225;47.804;12.116;2022-12-07T16:17:10;3.30;99.90
25280;DHT22;13225;47.804;12.116;2022-12-07T16:19:37;3.30;99.90
25280;DHT22;13225;47.804;12.116;2022-12-07T16:22:03;3.30;99.90
25280;DHT22;13225;47.804;12.116;2022-12-07T16:24:32;3.20;99.90
25280;DHT22;13225;47.804;12.116;2022-12-07T16:26:57;3.20;99.90
25280;DHT22;13225;47.804;12.116;2022-12-07T16:29:23;3.20;99.90
25280;DHT22;13225;47.804;12.116;2022-12-07T16:31:49;3.20;99.90
25280;DHT22;13225;47.804;12.116;2022-12-07T16:34:18;3.20;99.90
25280;DHT22;13225;47.804;12.116;2022-12-07T16:36:46;3.20;99.90
25280;DHT22;13225;47.804;12.116;2022-12-07T16:39:12;3.20;99.90
25280;DHT22;13225;47.804;12.116;2022-12-07T16:41:45;3.20;99.90
25280;DHT22;13225;47.804;12.116;2022-12-07T16:44:12;3.20;99.90
25280;DHT22;13225;47.804;12.116;2022-12-07T16:46:40;3.20;99.90
25280;DHT22;13225;47.804;12.116;2022-12-07T16:49:13;3.10;99.90
25280;DHT22;13225;47.804;12.116;2022-12-07T16:51:39;3.00;99.90
25280;DHT22;13225;47.804;12.116;2022-12-07T16:54:05;3.00;99.90
25280;DHT22;13225;47.804;12.116;2022-12-07T16:56:31;3.00;99.90
25280;DHT22;13225;47.804;12.116;2022-12-07T16:58:59;3.10;99.90
25280;DHT22;13225;47.804;12.116;2022-12-07T17:01:25;3.10;99.90
25280;DHT22;13225;47.804;12.116;2022-12-07T17:03:53;3.10;99.90
25280;DHT22;13225;47.804;12.116;2022-12-07T17:06:24;3.00;99.90
25280;DHT22;13225;47.804;12.116;2022-12-07T17:08:56;3.00;99.90
25280;DHT22;13225;47.804;12.116;2022-12-07T17:11:25;3.00;99.90
25280;DHT22;13225;47.804;12.116;2022-12-07T17:13:51;3.10;99.90
25280;DHT22;13225;47.804;12.116;2022-12-07T17:16:37;3.10;99.90
25280;DHT22;13225;47.804;12.116;2022-12-07T17:19:08;3.10;99.90
25280;DHT22;13225;47.804;12.116;2022-12-07T17:21:34;3.00;99.90
25280;DHT22;13225;47.804;12.116;2022-12-07T17:24:01;3.00;99.90
25280;DHT22;13225;47.804;12.116;2022-12-07T17:26:29;3.00;99.90
25280;DHT22;13225;47.804;12.116;2022-12-07T17:28:55;3.00;99.90
25280;DHT22;13225;47.804;12.116;2022-12-07T17:31:22;3.00;99.90
25280;DHT22;13225;47.804;12.116;2022-12-07T17:33:48;3.00;99.90
25280;DHT22;13225;47.804;12.116;2022-12-07T17:36:23;3.00;99.90
25280;DHT22;13225;47.804;12.116;2022-12-07T17:38:50;3.00;99.90
25280;DHT22;13225;47.804;12.116;2022-12-07T17:41:25;3.00;99.90
25280;DHT22;13225;47.804;12.116;2022-12-07T17:44:15;3.00;99.90